createdAt,value
2022-12-19T00:02:07.449Z,77.73
2022-12-19T00:06:06.528Z,77.58
2022-12-19T00:10:06.348Z,76.69
2022-12-19T00:14:05.987Z,77.04
2022-12-19T00:18:18.711Z,77.40
2022-12-19T00:22:18.085Z,77.72
2022-12-19T00:26:22.927Z,77.36
2022-12-19T00:30:22.194Z,78.05
2022-12-19T00:34:22.498Z,78.47
2022-12-19T00:38:21.330Z,78.19
2022-12-19T00:42:20.875Z,79.00
2022-12-19T00:46:21.452Z,79.20
2022-12-19T00:50:20.608Z,78.89
2022-12-19T00:54:20.047Z,79.30
2022-12-19T00:58:22.346Z,79.26
2022-12-19T01:01:57.802Z,78.92
2022-12-19T01:05:57.026Z,79.15
2022-12-19T01:09:56.299Z,80.10
2022-12-19T01:13:55.588Z,80.31
2022-12-19T01:17:56.375Z,80.79
2022-12-19T01:21:32.487Z,80.88
2022-12-19T01:25:35.199Z,80.15
2022-12-19T01:29:36.675Z,80.87
2022-12-19T01:33:42.234Z,80.58
2022-12-19T01:37:43.575Z,81.12
2022-12-19T01:41:42.482Z,81.25
2022-12-19T01:45:45.905Z,81.31
2022-12-19T01:49:45.522Z,81.04
2022-12-19T01:53:49.780Z,81.11
2022-12-19T01:57:49.509Z,80.37
2022-12-19T02:01:51.611Z,80.92
2022-12-19T02:05:54.641Z,80.50
2022-12-19T02:09:57.395Z,80.08
2022-12-19T02:14:02.365Z,80.05
2022-12-19T02:18:04.616Z,79.72
2022-12-19T02:22:21.973Z,80.07
2022-12-19T02:26:46.698Z,79.41
2022-12-19T02:31:05.381Z,80.36
2022-12-19T02:35:52.807Z,80.46
2022-12-19T02:39:12.432Z,80.27
2022-12-19T02:43:13.139Z,80.60
2022-12-19T02:47:14.821Z,80.19
2022-12-19T02:51:14.316Z,80.55
2022-12-19T02:55:30.648Z,80.10
2022-12-19T02:59:49.839Z,80.61
2022-12-19T03:03:53.754Z,80.41
2022-12-19T03:08:02.041Z,80.82
2022-12-19T03:12:14.087Z,80.44
2022-12-19T03:16:16.274Z,80.68
2022-12-19T03:20:53.768Z,80.81
2022-12-19T03:23:54.963Z,81.10
2022-12-19T03:28:11.877Z,81.91
2022-12-19T03:32:12.640Z,81.46
2022-12-19T03:36:16.181Z,81.99
2022-12-19T03:40:20.453Z,82.16
2022-12-19T03:43:53.437Z,82.18
2022-12-19T03:47:57.700Z,82.72
2022-12-19T03:52:15.380Z,82.07
2022-12-19T03:56:31.425Z,82.65
2022-12-19T04:00:34.701Z,82.80
2022-12-19T04:04:36.486Z,82.65
2022-12-19T04:08:36.324Z,83.34
2022-12-19T04:12:39.144Z,83.07
2022-12-19T04:16:51.608Z,83.39
2022-12-19T04:21:17.969Z,83.39
2022-12-19T04:24:32.779Z,82.76
2022-12-19T04:28:36.770Z,83.09
2022-12-19T04:32:36.565Z,83.55
2022-12-19T04:36:35.597Z,83.04
2022-12-19T04:40:40.889Z,82.95
2022-12-19T04:44:40.934Z,83.18
2022-12-19T04:48:39.845Z,83.16
2022-12-19T04:52:58.097Z,83.41
2022-12-19T04:56:16.917Z,84.29
2022-12-19T05:00:17.710Z,84.48
2022-12-19T05:04:16.588Z,84.49
2022-12-19T05:08:15.975Z,84.29
2022-12-19T05:12:15.748Z,84.27
2022-12-19T05:16:16.154Z,84.02
2022-12-19T05:20:15.367Z,84.41
2022-12-19T05:24:18.035Z,84.21
2022-12-19T05:27:51.923Z,84.87
2022-12-19T05:31:50.877Z,85.18
2022-12-19T05:35:49.949Z,84.92
2022-12-19T05:39:48.937Z,84.70
2022-12-19T05:43:52.276Z,85.23
2022-12-19T05:47:51.362Z,84.78
2022-12-19T05:51:50.292Z,85.03
2022-12-19T05:55:49.075Z,87.16
2022-12-19T05:59:48.075Z,84.73
2022-12-19T06:03:47.438Z,84.01
2022-12-19T06:07:48.126Z,84.26
2022-12-19T06:11:26.386Z,85.10
2022-12-19T06:15:30.119Z,85.20
2022-12-19T06:19:07.428Z,85.59
2022-12-19T06:27:56.478Z,85.07
2022-12-19T06:31:56.010Z,85.23
2022-12-19T06:36:02.782Z,85.52
2022-12-19T06:40:01.875Z,85.84
2022-12-19T06:44:01.858Z,84.96
2022-12-19T06:48:01.369Z,85.14
2022-12-19T06:52:08.911Z,84.62
2022-12-19T06:55:38.639Z,85.18
2022-12-19T06:59:38.192Z,85.55
2022-12-19T07:03:40.456Z,85.26
2022-12-19T07:07:53.819Z,84.17
2022-12-19T07:11:53.032Z,84.59
2022-12-19T07:15:52.841Z,84.13
2022-12-19T07:19:54.418Z,84.54
2022-12-19T07:23:55.656Z,84.12
2022-12-19T07:27:35.602Z,84.70
2022-12-19T07:31:35.372Z,84.85
2022-12-19T07:35:34.819Z,84.40
2022-12-19T07:39:33.991Z,84.16
2022-12-19T07:43:33.305Z,83.82
2022-12-19T07:47:33.857Z,84.32
2022-12-19T07:51:34.010Z,83.91
2022-12-19T07:55:33.751Z,83.29
2022-12-19T07:59:38.789Z,83.92
2022-12-19T08:03:38.993Z,83.58
2022-12-19T08:07:38.753Z,83.69
2022-12-19T08:11:38.419Z,83.20
2022-12-19T08:15:38.596Z,82.37
2022-12-19T08:19:38.487Z,82.41
2022-12-19T08:23:40.995Z,82.60
2022-12-19T08:27:41.575Z,82.33
2022-12-19T08:31:42.163Z,82.06
2022-12-19T08:35:41.527Z,82.29
2022-12-19T08:39:41.587Z,81.58
2022-12-19T08:43:42.188Z,81.58
2022-12-19T08:47:41.992Z,81.44
2022-12-19T08:51:41.827Z,81.55
2022-12-19T08:55:41.377Z,81.17
2022-12-19T08:59:41.166Z,80.45
2022-12-19T09:03:50.205Z,79.96
2022-12-19T09:08:01.980Z,79.77
2022-12-19T09:12:01.201Z,79.80
2022-12-19T09:16:05.016Z,78.90
2022-12-19T09:20:05.370Z,79.04
2022-12-19T09:24:07.963Z,77.61
2022-12-19T09:32:27.089Z,77.89
2022-12-19T09:36:26.422Z,77.35
2022-12-19T09:40:27.741Z,76.38
2022-12-19T09:44:37.012Z,76.33
2022-12-19T09:48:36.749Z,77.42
2022-12-19T09:52:37.603Z,76.40
2022-12-19T09:56:45.908Z,76.39
2022-12-19T10:00:56.018Z,76.85
2022-12-19T10:05:59.748Z,76.31
2022-12-19T10:11:16.321Z,76.41
2022-12-19T10:14:31.728Z,76.38
2022-12-19T10:18:32.530Z,75.83
2022-12-19T10:22:50.901Z,76.62
2022-12-19T10:26:55.057Z,77.16
2022-12-19T10:30:58.235Z,76.19
2022-12-19T10:34:58.625Z,76.95
2022-12-19T10:39:09.197Z,76.05
2022-12-19T10:43:22.918Z,76.83
2022-12-19T10:47:30.381Z,77.12
2022-12-19T10:51:12.124Z,76.41
2022-12-19T10:55:30.593Z,76.11
2022-12-19T10:59:30.284Z,76.92
2022-12-19T11:03:29.726Z,76.73
2022-12-19T11:07:29.455Z,76.63
2022-12-19T11:14:27.454Z,76.90
2022-12-19T11:21:55.196Z,75.82
2022-12-19T11:29:39.757Z,76.36
2022-12-19T11:30:48.178Z,76.99
2022-12-19T11:33:53.584Z,77.23
2022-12-19T11:37:56.005Z,76.85
2022-12-19T11:42:02.445Z,76.26
2022-12-19T11:46:22.227Z,76.59
2022-12-19T11:50:24.923Z,77.16
2022-12-19T11:54:24.382Z,77.23
2022-12-19T11:58:25.419Z,77.27
2022-12-19T12:02:50.645Z,77.53
2022-12-19T12:06:52.264Z,77.08
2022-12-19T12:17:41.910Z,76.99
2022-12-19T12:19:41.035Z,77.03
2022-12-19T12:24:58.859Z,76.87
2022-12-19T12:31:46.586Z,77.33
2022-12-19T12:31:56.043Z,77.86
2022-12-19T12:35:16.313Z,78.21
2022-12-19T12:42:04.113Z,77.68
2022-12-19T12:46:04.853Z,77.89
2022-12-19T12:50:06.727Z,77.59
2022-12-19T12:54:08.023Z,78.06
2022-12-19T12:58:40.439Z,77.95
2022-12-19T13:02:40.500Z,77.33
2022-12-19T13:06:41.219Z,77.32
2022-12-19T13:11:04.329Z,77.37
2022-12-19T13:14:40.961Z,77.81
2022-12-19T13:18:41.260Z,77.62
2022-12-19T13:22:41.898Z,78.08
2022-12-19T13:26:46.738Z,77.61
2022-12-19T13:31:21.000Z,77.66
2022-12-19T13:36:31.800Z,78.21
2022-12-19T13:39:55.161Z,77.99
2022-12-19T13:44:02.533Z,78.30
2022-12-19T13:48:03.525Z,78.41
2022-12-19T13:52:05.351Z,78.75
2022-12-19T13:56:06.987Z,77.88
2022-12-19T14:00:29.989Z,77.53
2022-12-19T14:04:31.147Z,77.44
2022-12-19T14:08:30.267Z,77.93
2022-12-19T14:13:40.097Z,77.66
2022-12-19T14:17:13.445Z,77.29
2022-12-19T14:22:11.105Z,77.02
2022-12-19T14:28:21.635Z,77.08
2022-12-19T14:30:27.770Z,77.25
2022-12-19T14:39:24.521Z,77.16
2022-12-19T14:43:59.031Z,77.75
2022-12-19T14:54:18.066Z,77.13
2022-12-19T14:54:33.731Z,77.02
2022-12-19T14:56:14.160Z,77.24
2022-12-19T15:01:07.515Z,77.30
2022-12-19T15:04:51.083Z,77.62
2022-12-19T15:11:00.685Z,76.83
2022-12-19T15:14:53.928Z,76.68
2022-12-19T15:17:21.696Z,76.88
2022-12-19T15:21:21.220Z,77.09
2022-12-19T15:26:02.677Z,77.13
2022-12-19T15:29:54.535Z,76.95
2022-12-19T15:34:32.245Z,77.52
2022-12-19T15:38:13.117Z,77.42
2022-12-19T15:42:20.948Z,77.17
2022-12-19T15:46:20.959Z,77.62
2022-12-19T15:50:22.506Z,77.31
2022-12-19T15:54:47.599Z,77.59
2022-12-19T16:09:23.305Z,76.80
2022-12-19T16:12:26.887Z,76.32
2022-12-19T16:16:26.791Z,76.43
2022-12-19T16:20:27.750Z,77.05
2022-12-19T16:24:26.683Z,76.69
2022-12-19T16:28:28.703Z,76.90
2022-12-19T16:32:29.181Z,77.00
2022-12-19T16:36:28.011Z,77.38
2022-12-19T16:40:40.709Z,77.52
2022-12-19T16:49:49.312Z,79.84
2022-12-19T16:54:09.233Z,78.52
2022-12-19T16:57:26.692Z,78.77
2022-12-19T17:01:39.945Z,78.67
2022-12-19T17:05:39.176Z,78.68
2022-12-19T17:09:38.935Z,78.78
2022-12-19T17:13:38.211Z,78.61
2022-12-19T17:17:37.618Z,78.53
2022-12-19T17:21:37.249Z,78.46
2022-12-19T17:25:38.949Z,78.58
2022-12-19T17:29:38.504Z,78.69
2022-12-19T17:33:39.889Z,78.45
2022-12-19T17:37:39.194Z,78.80
2022-12-19T17:41:38.417Z,78.76
2022-12-19T17:45:38.528Z,78.62
2022-12-19T17:49:38.712Z,78.81
2022-12-19T17:53:37.920Z,79.39
2022-12-19T17:57:51.867Z,79.87
2022-12-19T18:01:29.810Z,80.10
2022-12-19T18:05:32.179Z,80.06
2022-12-19T18:09:31.641Z,80.51
2022-12-19T18:13:31.546Z,80.92
2022-12-19T18:17:31.408Z,80.55
2022-12-19T18:21:30.700Z,81.18
2022-12-19T18:29:45.219Z,80.91
2022-12-19T18:33:47.199Z,80.60
2022-12-19T18:37:47.146Z,80.19
2022-12-19T18:41:46.292Z,80.39
2022-12-19T18:45:47.714Z,80.81
2022-12-19T18:50:01.189Z,80.54
2022-12-19T18:54:01.092Z,80.60
2022-12-19T18:58:20.034Z,80.82
2022-12-19T19:01:43.749Z,81.00
2022-12-19T19:05:43.555Z,80.48
2022-12-19T19:09:43.552Z,80.71
2022-12-19T19:18:25.647Z,80.56
2022-12-19T19:22:25.698Z,80.39
2022-12-19T19:26:25.245Z,80.99
2022-12-19T19:30:24.500Z,80.90
2022-12-19T19:34:27.419Z,81.59
2022-12-19T19:38:27.051Z,81.60
2022-12-19T19:42:44.929Z,81.57
2022-12-19T19:46:04.254Z,81.66
2022-12-19T19:50:18.013Z,81.39
2022-12-19T19:54:17.890Z,81.57
2022-12-19T19:58:17.271Z,82.19
2022-12-19T20:02:17.307Z,81.82
2022-12-19T20:06:16.796Z,82.25
2022-12-19T20:10:16.479Z,82.67
2022-12-19T20:14:16.249Z,82.63
2022-12-19T20:18:16.018Z,83.32
2022-12-19T20:22:16.155Z,83.55
2022-12-19T20:26:17.163Z,84.06
2022-12-19T20:30:18.203Z,84.23
2022-12-19T20:34:31.583Z,84.25
2022-12-19T20:38:31.518Z,84.89
2022-12-19T20:42:31.103Z,84.92
2022-12-19T20:46:30.786Z,85.40
2022-12-19T20:50:30.540Z,85.81
2022-12-19T20:54:29.997Z,86.44
2022-12-19T20:58:43.335Z,86.68
2022-12-19T21:03:27.063Z,87.28
2022-12-19T21:06:20.821Z,87.23
2022-12-19T21:10:21.006Z,87.23
2022-12-19T21:14:34.275Z,87.37
2022-12-19T21:18:34.938Z,87.69
2022-12-19T21:22:34.274Z,88.07
2022-12-19T21:26:34.300Z,88.15
2022-12-19T21:30:33.684Z,88.13
2022-12-19T21:34:33.053Z,88.31
2022-12-19T21:38:32.508Z,88.63
2022-12-19T21:42:31.581Z,88.73
2022-12-19T21:46:33.409Z,89.14
2022-12-19T21:50:34.019Z,89.35
2022-12-19T21:54:33.072Z,89.43
2022-12-19T21:58:32.622Z,89.77
2022-12-19T22:02:34.123Z,89.71
2022-12-19T22:06:15.091Z,89.95
2022-12-19T22:10:14.426Z,89.82
2022-12-19T22:14:27.555Z,89.80
2022-12-19T22:18:27.047Z,90.24
2022-12-19T22:22:26.321Z,90.14
2022-12-19T22:26:25.561Z,90.26
2022-12-19T22:30:24.870Z,90.49
2022-12-19T22:34:24.435Z,90.75
2022-12-19T22:38:23.519Z,90.80
2022-12-19T22:42:23.393Z,91.03
2022-12-19T22:46:30.158Z,91.06
2022-12-19T22:50:29.682Z,91.08
2022-12-19T22:54:29.580Z,91.24
2022-12-19T22:58:29.727Z,91.38
2022-12-19T23:02:29.413Z,91.13
2022-12-19T23:06:31.357Z,91.31
2022-12-19T23:10:30.805Z,91.40
2022-12-19T23:14:30.533Z,91.53
2022-12-19T23:18:44.559Z,91.38
2022-12-19T23:22:44.039Z,91.49
2022-12-19T23:26:44.692Z,91.66
2022-12-19T23:30:43.639Z,91.80
2022-12-19T23:34:43.009Z,91.67
2022-12-19T23:38:43.816Z,91.72
2022-12-19T23:42:43.036Z,91.76
2022-12-19T23:46:42.592Z,92.02
2022-12-19T23:50:41.627Z,92.03
2022-12-19T23:54:40.921Z,91.98
2022-12-19T23:58:40.911Z,92.35
